sensor_id;sensor_type;location;lat;lon;timestamp;pressure;altitude;pressure_sealevel;temperature;humidity
57024;BME280;42916;54.346;18.562;2023-02-01T00:01:06;98599.36;;;2.14;100.00
57024;BME280;42916;54.346;18.562;2023-02-01T00:03:33;98594.55;;;2.15;100.00
57024;BME280;42916;54.346;18.562;2023-02-01T00:06:01;98587.60;;;2.17;100.00
57024;BME280;42916;54.346;18.562;2023-02-01T00:08:28;98595.92;;;2.21;100.00
57024;BME280;42916;54.346;18.562;2023-02-01T00:11:06;98592.81;;;2.25;100.00
57024;BME280;42916;54.346;18.562;2023-02-01T00:13:35;98595.69;;;2.31;100.00
57024;BME280;42916;54.346;18.562;2023-02-01T00:16:06;98610.21;;;2.36;100.00
57024;BME280;42916;54.346;18.562;2023-02-01T00:18:34;98599.17;;;2.41;100.00
57024;BME280;42916;54.346;18.562;2023-02-01T00:21:01;98601.77;;;2.43;100.00
57024;BME280;42916;54.346;18.562;2023-02-01T00:23:28;98597.85;;;2.46;100.00
57024;BME280;42916;54.346;18.562;2023-02-01T00:25:54;98606.73;;;2.52;100.00
57024;BME280;42916;54.346;18.562;2023-02-01T00:28:21;98615.92;;;2.56;100.00
57024;BME280;42916;54.346;18.562;2023-02-01T00:30:58;98617.42;;;2.56;100.00
57024;BME280;42916;54.346;18.562;2023-02-01T00:33:25;98632.98;;;2.47;100.00
57024;BME280;42916;54.346;18.562;2023-02-01T00:35:59;98611.94;;;2.33;100.00
57024;BME280;42916;54.346;18.562;2023-02-01T00:38:27;98617.52;;;2.19;100.00
57024;BME280;42916;54.346;18.562;2023-02-01T00:40:55;98612.55;;;2.08;100.00
57024;BME280;42916;54.346;18.562;2023-02-01T00:43:28;98616.22;;;1.99;100.00
57024;BME280;42916;54.346;18.562;2023-02-01T00:45:54;98620.64;;;1.94;100.00
57024;BME280;42916;54.346;18.562;2023-02-01T00:48:21;98626.84;;;1.92;100.00
57024;BME280;42916;54.346;18.562;2023-02-01T00:50:48;98620.63;;;1.90;100.00
57024;BME280;42916;54.346;18.562;2023-02-01T00:53:14;98624.54;;;1.86;100.00
57024;BME280;42916;54.346;18.562;2023-02-01T00:55:47;98618.02;;;1.86;100.00
57024;BME280;42916;54.346;18.562;2023-02-01T00:58:15;98608.70;;;1.85;100.00
57024;BME280;42916;54.346;18.562;2023-02-01T01:00:41;98615.39;;;1.87;100.00
57024;BME280;42916;54.346;18.562;2023-02-01T01:03:08;98605.42;;;1.88;100.00
57024;BME280;42916;54.346;18.562;2023-02-01T01:05:49;98599.86;;;1.88;100.00
57024;BME280;42916;54.346;18.562;2023-02-01T01:08:16;98593.08;;;1.87;100.00
57024;BME280;42916;54.346;18.562;2023-02-01T01:10:43;98598.50;;;1.87;100.00
57024;BME280;42916;54.346;18.562;2023-02-01T01:13:09;98605.23;;;1.89;100.00
57024;BME280;42916;54.346;18.562;2023-02-01T01:15:38;98605.30;;;1.94;100.00
57024;BME280;42916;54.346;18.562;2023-02-01T01:18:06;98597.08;;;1.99;100.00
57024;BME280;42916;54.346;18.562;2023-02-01T01:20:38;98596.95;;;2.02;100.00
57024;BME280;42916;54.346;18.562;2023-02-01T01:23:06;98590.45;;;2.04;100.00
57024;BME280;42916;54.346;18.562;2023-02-01T01:25:37;98589.64;;;2.03;100.00
57024;BME280;42916;54.346;18.562;2023-02-01T01:28:04;98589.64;;;2.03;100.00
57024;BME280;42916;54.346;18.562;2023-02-01T01:30:33;98584.09;;;2.06;100.00
57024;BME280;42916;54.346;18.562;2023-02-01T01:33:00;98586.36;;;2.07;100.00
57024;BME280;42916;54.346;18.562;2023-02-01T01:35:31;98598.41;;;2.09;100.00
57024;BME280;42916;54.346;18.562;2023-02-01T01:37:58;98588.19;;;2.14;100.00
57024;BME280;42916;54.346;18.562;2023-02-01T01:40:27;98593.54;;;2.16;100.00
57024;BME280;42916;54.346;18.562;2023-02-01T01:42:54;98601.79;;;2.19;100.00
57024;BME280;42916;54.346;18.562;2023-02-01T01:45:33;98598.25;;;2.22;100.00
57024;BME280;42916;54.346;18.562;2023-02-01T01:48:06;98612.98;;;2.25;100.00
57024;BME280;42916;54.346;18.562;2023-02-01T01:50:42;98597.39;;;2.30;100.00
57024;BME280;42916;54.346;18.562;2023-02-01T01:53:12;98609.52;;;2.34;100.00
57024;BME280;42916;54.346;18.562;2023-02-01T01:55:43;98603.14;;;2.37;100.00
57024;BME280;42916;54.346;18.562;2023-02-01T01:58:17;98602.73;;;2.38;100.00
57024;BME280;42916;54.346;18.562;2023-02-01T02:00:47;98619.64;;;2.35;100.00
57024;BME280;42916;54.346;18.562;2023-02-01T02:03:16;98593.52;;;2.32;100.00
57024;BME280;42916;54.346;18.562;2023-02-01T02:05:46;98595.18;;;2.30;100.00
57024;BME280;42916;54.346;18.562;2023-02-01T02:08:17;98585.98;;;2.28;100.00
57024;BME280;42916;54.346;18.562;2023-02-01T02:10:44;98583.38;;;2.26;100.00
57024;BME280;42916;54.346;18.562;2023-02-01T02:13:51;98580.41;;;2.24;100.00
57024;BME280;42916;54.346;18.562;2023-02-01T02:28:01;98586.59;;;2.29;100.00
57024;BME280;42916;54.346;18.562;2023-02-01T02:30:42;98587.39;;;2.31;100.00
57024;BME280;42916;54.346;18.562;2023-02-01T02:41:53;98602.02;;;2.40;100.00
57024;BME280;42916;54.346;18.562;2023-02-01T02:50:38;98643.84;;;1.93;100.00
57024;BME280;42916;54.346;18.562;2023-02-01T02:53:33;98634.61;;;1.68;100.00
57024;BME280;42916;54.346;18.562;2023-02-01T02:56:23;98636.34;;;1.45;100.00
57024;BME280;42916;54.346;18.562;2023-02-01T02:59:12;98628.98;;;1.30;100.00
57024;BME280;42916;54.346;18.562;2023-02-01T03:01:59;98623.33;;;1.21;100.00
57024;BME280;42916;54.346;18.562;2023-02-01T03:04:45;98622.09;;;1.17;100.00
57024;BME280;42916;54.346;18.562;2023-02-01T03:12:44;98620.48;;;1.28;100.00
57024;BME280;42916;54.346;18.562;2023-02-01T03:15:29;98619.43;;;1.36;100.00
57024;BME280;42916;54.346;18.562;2023-02-01T03:18:01;98615.71;;;1.40;100.00
57024;BME280;42916;54.346;18.562;2023-02-01T03:20:30;98633.19;;;1.40;100.00
57024;BME280;42916;54.346;18.562;2023-02-01T03:22:59;98626.94;;;1.43;100.00
57024;BME280;42916;54.346;18.562;2023-02-01T03:25:30;98629.51;;;1.46;100.00
57024;BME280;42916;54.346;18.562;2023-02-01T03:28:04;98625.54;;;1.46;100.00
57024;BME280;42916;54.346;18.562;2023-02-01T03:30:37;98625.63;;;1.42;100.00
57024;BME280;42916;54.346;18.562;2023-02-01T03:33:06;98632.36;;;1.38;100.00
57024;BME280;42916;54.346;18.562;2023-02-01T03:41:35;98620.52;;;1.33;100.00
57024;BME280;42916;54.346;18.562;2023-02-01T03:44:11;98634.79;;;1.34;100.00
57024;BME280;42916;54.346;18.562;2023-02-01T03:46:48;98635.98;;;1.38;100.00
57024;BME280;42916;54.346;18.562;2023-02-01T03:49:21;98643.63;;;1.39;100.00
57024;BME280;42916;54.346;18.562;2023-02-01T03:51:51;98641.56;;;1.38;100.00
57024;BME280;42916;54.346;18.562;2023-02-01T03:54:19;98641.13;;;1.35;100.00
57024;BME280;42916;54.346;18.562;2023-02-01T03:56:48;98647.30;;;1.33;100.00
57024;BME280;42916;54.346;18.562;2023-02-01T03:59:17;98648.17;;;1.31;100.00
57024;BME280;42916;54.346;18.562;2023-02-01T04:01:44;98642.40;;;1.28;100.00
57024;BME280;42916;54.346;18.562;2023-02-01T04:04:12;98643.81;;;1.28;100.00
57024;BME280;42916;54.346;18.562;2023-02-01T04:06:50;98636.52;;;1.30;100.00
57024;BME280;42916;54.346;18.562;2023-02-01T04:09:17;98627.37;;;1.33;100.00
57024;BME280;42916;54.346;18.562;2023-02-01T04:11:44;98630.34;;;1.34;100.00
57024;BME280;42916;54.346;18.562;2023-02-01T04:14:11;98619.71;;;1.36;100.00
57024;BME280;42916;54.346;18.562;2023-02-01T04:16:37;98618.80;;;1.38;100.00
57024;BME280;42916;54.346;18.562;2023-02-01T04:19:04;98618.23;;;1.43;100.00
57024;BME280;42916;54.346;18.562;2023-02-01T04:21:31;98624.77;;;1.51;100.00
57024;BME280;42916;54.346;18.562;2023-02-01T04:23:58;98626.14;;;1.59;100.00
57024;BME280;42916;54.346;18.562;2023-02-01T04:26:24;98625.70;;;1.67;100.00
57024;BME280;42916;54.346;18.562;2023-02-01T04:28:51;98622.59;;;1.76;100.00
57024;BME280;42916;54.346;18.562;2023-02-01T04:31:19;98627.86;;;1.83;100.00
57024;BME280;42916;54.346;18.562;2023-02-01T04:33:55;98621.99;;;1.91;100.00
57024;BME280;42916;54.346;18.562;2023-02-01T04:36:24;98626.72;;;1.99;100.00
57024;BME280;42916;54.346;18.562;2023-02-01T04:38:51;98624.27;;;2.02;100.00
57024;BME280;42916;54.346;18.562;2023-02-01T04:41:19;98628.38;;;2.07;100.00
57024;BME280;42916;54.346;18.562;2023-02-01T04:43:46;98629.19;;;2.11;100.00
57024;BME280;42916;54.346;18.562;2023-02-01T04:46:14;98629.60;;;2.16;100.00
57024;BME280;42916;54.346;18.562;2023-02-01T04:48:41;98633.04;;;2.21;100.00
57024;BME280;42916;54.346;18.562;2023-02-01T04:51:09;98640.46;;;2.21;100.00
57024;BME280;42916;54.346;18.562;2023-02-01T04:53:37;98639.57;;;2.22;100.00
57024;BME280;42916;54.346;18.562;2023-02-01T04:56:04;98636.35;;;2.22;100.00
57024;BME280;42916;54.346;18.562;2023-02-01T04:58:31;98630.86;;;2.22;100.00
57024;BME280;42916;54.346;18.562;2023-02-01T05:00:57;98638.17;;;2.23;100.00
57024;BME280;42916;54.346;18.562;2023-02-01T05:03:24;98629.50;;;2.24;100.00
57024;BME280;42916;54.346;18.562;2023-02-01T05:05:51;98635.11;;;2.22;100.00
57024;BME280;42916;54.346;18.562;2023-02-01T05:08:20;98636.09;;;2.21;100.00
57024;BME280;42916;54.346;18.562;2023-02-01T05:10:48;98641.13;;;2.19;100.00
57024;BME280;42916;54.346;18.562;2023-02-01T05:13:15;98637.04;;;2.12;100.00
57024;BME280;42916;54.346;18.562;2023-02-01T05:16:01;98641.16;;;1.99;100.00
57024;BME280;42916;54.346;18.562;2023-02-01T05:18:28;98635.46;;;1.92;100.00
57024;BME280;42916;54.346;18.562;2023-02-01T05:20:55;98648.22;;;1.88;100.00
57024;BME280;42916;54.346;18.562;2023-02-01T05:23:21;98650.35;;;1.84;100.00
57024;BME280;42916;54.346;18.562;2023-02-01T05:25:48;98645.98;;;1.80;100.00
57024;BME280;42916;54.346;18.562;2023-02-01T05:28:15;98631.28;;;1.76;100.00
57024;BME280;42916;54.346;18.562;2023-02-01T05:30:42;98639.55;;;1.70;100.00
57024;BME280;42916;54.346;18.562;2023-02-01T05:33:08;98644.38;;;1.62;100.00
57024;BME280;42916;54.346;18.562;2023-02-01T05:35:35;98642.75;;;1.56;100.00
57024;BME280;42916;54.346;18.562;2023-02-01T05:38:02;98636.46;;;1.49;100.00
57024;BME280;42916;54.346;18.562;2023-02-01T05:40:29;98634.83;;;1.44;100.00
57024;BME280;42916;54.346;18.562;2023-02-01T05:42:55;98632.55;;;1.40;100.00
57024;BME280;42916;54.346;18.562;2023-02-01T05:45:22;98629.04;;;1.39;100.00
57024;BME280;42916;54.346;18.562;2023-02-01T05:47:49;98629.42;;;1.39;100.00
57024;BME280;42916;54.346;18.562;2023-02-01T05:50:16;98623.89;;;1.41;100.00
57024;BME280;42916;54.346;18.562;2023-02-01T05:52:43;98627.07;;;1.45;100.00
57024;BME280;42916;54.346;18.562;2023-02-01T05:55:10;98617.61;;;1.49;100.00
57024;BME280;42916;54.346;18.562;2023-02-01T05:57:37;98617.09;;;1.56;100.00
57024;BME280;42916;54.346;18.562;2023-02-01T06:00:04;98622.70;;;1.64;100.00
57024;BME280;42916;54.346;18.562;2023-02-01T06:02:39;98619.80;;;1.73;100.00
57024;BME280;42916;54.346;18.562;2023-02-01T06:05:07;98629.30;;;1.83;100.00
57024;BME280;42916;54.346;18.562;2023-02-01T06:07:34;98629.97;;;1.94;100.00
57024;BME280;42916;54.346;18.562;2023-02-01T06:10:00;98628.55;;;2.05;100.00
57024;BME280;42916;54.346;18.562;2023-02-01T06:12:27;98634.89;;;2.17;100.00
57024;BME280;42916;54.346;18.562;2023-02-01T06:14:54;98640.05;;;2.26;100.00
57024;BME280;42916;54.346;18.562;2023-02-01T06:17:21;98628.89;;;2.34;100.00
57024;BME280;42916;54.346;18.562;2023-02-01T06:19:48;98639.45;;;2.40;100.00
57024;BME280;42916;54.346;18.562;2023-02-01T06:22:15;98635.86;;;2.43;100.00
57024;BME280;42916;54.346;18.562;2023-02-01T06:24:42;98624.27;;;2.47;100.00
57024;BME280;42916;54.346;18.562;2023-02-01T06:27:09;98635.94;;;2.49;100.00
57024;BME280;42916;54.346;18.562;2023-02-01T06:29:35;98635.22;;;2.51;100.00
57024;BME280;42916;54.346;18.562;2023-02-01T06:32:02;98628.06;;;2.52;100.00
57024;BME280;42916;54.346;18.562;2023-02-01T06:34:29;98624.64;;;2.51;100.00
57024;BME280;42916;54.346;18.562;2023-02-01T06:36:56;98627.22;;;2.51;100.00
57024;BME280;42916;54.346;18.562;2023-02-01T06:39:22;98628.02;;;2.50;100.00
57024;BME280;42916;54.346;18.562;2023-02-01T06:41:49;98629.80;;;2.51;100.00
57024;BME280;42916;54.346;18.562;2023-02-01T06:44:16;98634.73;;;2.52;100.00
57024;BME280;42916;54.346;18.562;2023-02-01T06:46:43;98626.04;;;2.51;100.00
57024;BME280;42916;54.346;18.562;2023-02-01T06:49:10;98626.04;;;2.51;100.00
57024;BME280;42916;54.346;18.562;2023-02-01T06:51:37;98631.06;;;2.52;100.00
57024;BME280;42916;54.346;18.562;2023-02-01T06:54:03;98631.45;;;2.53;100.00
57024;BME280;42916;54.346;18.562;2023-02-01T06:56:30;98635.23;;;2.55;100.00
57024;BME280;42916;54.346;18.562;2023-02-01T06:58:58;98638.65;;;2.57;100.00
57024;BME280;42916;54.346;18.562;2023-02-01T07:01:26;98652.45;;;2.61;100.00
57024;BME280;42916;54.346;18.562;2023-02-01T07:03:52;98642.41;;;2.62;100.00
57024;BME280;42916;54.346;18.562;2023-02-01T07:06:19;98641.71;;;2.62;100.00
57024;BME280;42916;54.346;18.562;2023-02-01T07:08:46;98644.83;;;2.61;100.00
57024;BME280;42916;54.346;18.562;2023-02-01T07:11:15;98643.39;;;2.62;100.00
57024;BME280;42916;54.346;18.562;2023-02-01T07:13:42;98646.95;;;2.63;100.00
57024;BME280;42916;54.346;18.562;2023-02-01T07:16:15;98638.30;;;2.63;100.00
57024;BME280;42916;54.346;18.562;2023-02-01T07:18:43;98631.41;;;2.62;100.00
57024;BME280;42916;54.346;18.562;2023-02-01T07:21:10;98635.23;;;2.62;100.00
57024;BME280;42916;54.346;18.562;2023-02-01T07:23:38;98642.34;;;2.63;100.00
57024;BME280;42916;54.346;18.562;2023-02-01T07:26:06;98643.11;;;2.66;100.00
57024;BME280;42916;54.346;18.562;2023-02-01T07:28:35;98642.75;;;2.70;100.00
57024;BME280;42916;54.346;18.562;2023-02-01T07:31:10;98636.66;;;2.73;100.00
57024;BME280;42916;54.346;18.562;2023-02-01T07:33:37;98649.98;;;2.76;100.00
57024;BME280;42916;54.346;18.562;2023-02-01T07:36:05;98643.71;;;2.81;100.00
57024;BME280;42916;54.346;18.562;2023-02-01T07:38:33;98636.90;;;2.86;100.00
57024;BME280;42916;54.346;18.562;2023-02-01T07:41:03;98641.59;;;2.91;100.00
57024;BME280;42916;54.346;18.562;2023-02-01T07:43:31;98631.54;;;2.99;100.00
57024;BME280;42916;54.346;18.562;2023-02-01T07:46:00;98638.29;;;3.07;100.00
57024;BME280;42916;54.346;18.562;2023-02-01T07:48:28;98640.27;;;3.14;100.00
57024;BME280;42916;54.346;18.562;2023-02-01T07:51:00;98657.27;;;3.21;100.00
57024;BME280;42916;54.346;18.562;2023-02-01T07:53:29;98639.77;;;3.26;100.00
57024;BME280;42916;54.346;18.562;2023-02-01T07:55:56;98639.64;;;3.29;100.00
57024;BME280;42916;54.346;18.562;2023-02-01T07:58:24;98638.04;;;3.31;100.00
57024;BME280;42916;54.346;18.562;2023-02-01T08:00:51;98633.30;;;3.33;100.00
57024;BME280;42916;54.346;18.562;2023-02-01T08:03:37;98634.52;;;3.37;100.00
57024;BME280;42916;54.346;18.562;2023-02-01T08:06:04;98660.57;;;3.44;100.00
57024;BME280;42916;54.346;18.562;2023-02-01T08:08:31;98642.06;;;3.54;100.00
57024;BME280;42916;54.346;18.562;2023-02-01T08:11:02;98629.10;;;3.57;100.00
57024;BME280;42916;54.346;18.562;2023-02-01T08:13:30;98646.72;;;3.62;100.00
57024;BME280;42916;54.346;18.562;2023-02-01T08:16:04;98636.17;;;3.65;100.00
57024;BME280;42916;54.346;18.562;2023-02-01T08:18:32;98629.38;;;3.68;100.00
57024;BME280;42916;54.346;18.562;2023-02-01T08:23:38;98634.04;;;3.73;99.72
57024;BME280;42916;54.346;18.562;2023-02-01T08:26:17;98623.51;;;3.74;99.30
57024;BME280;42916;54.346;18.562;2023-02-01T08:28:47;98616.00;;;3.71;99.37
57024;BME280;42916;54.346;18.562;2023-02-01T08:31:16;98615.95;;;3.66;99.12
57024;BME280;42916;54.346;18.562;2023-02-01T08:33:47;98620.77;;;3.62;98.67
57024;BME280;42916;54.346;18.562;2023-02-01T08:36:14;98631.64;;;3.64;98.89
57024;BME280;42916;54.346;18.562;2023-02-01T08:38:41;98637.45;;;3.65;99.30
57024;BME280;42916;54.346;18.562;2023-02-01T08:41:10;98624.14;;;3.66;98.83
57024;BME280;42916;54.346;18.562;2023-02-01T08:43:38;98634.21;;;3.64;98.46
57024;BME280;42916;54.346;18.562;2023-02-01T08:46:06;98633.98;;;3.62;98.19
57024;BME280;42916;54.346;18.562;2023-02-01T08:48:34;98622.69;;;3.61;98.68
57024;BME280;42916;54.346;18.562;2023-02-01T08:51:09;98630.85;;;3.60;99.37
57024;BME280;42916;54.346;18.562;2023-02-01T08:53:38;98633.79;;;3.59;99.51
57024;BME280;42916;54.346;18.562;2023-02-01T08:56:09;98635.42;;;3.61;99.38
57024;BME280;42916;54.346;18.562;2023-02-01T08:58:38;98627.23;;;3.65;99.38
57024;BME280;42916;54.346;18.562;2023-02-01T09:01:06;98624.09;;;3.73;99.20
57024;BME280;42916;54.346;18.562;2023-02-01T09:03:34;98630.92;;;3.79;98.35
57024;BME280;42916;54.346;18.562;2023-02-01T09:06:06;98611.25;;;3.86;97.55
57024;BME280;42916;54.346;18.562;2023-02-01T09:08:34;98632.61;;;3.92;96.54
57024;BME280;42916;54.346;18.562;2023-02-01T09:11:12;98634.52;;;4.00;96.10
57024;BME280;42916;54.346;18.562;2023-02-01T09:13:39;98627.59;;;4.03;95.18
57024;BME280;42916;54.346;18.562;2023-02-01T09:16:06;98615.92;;;4.04;95.93
57024;BME280;42916;54.346;18.562;2023-02-01T09:18:34;98635.51;;;4.03;95.61
57024;BME280;42916;54.346;18.562;2023-02-01T09:21:08;98619.68;;;4.03;94.71
57024;BME280;42916;54.346;18.562;2023-02-01T09:23:35;98622.69;;;4.08;94.75
57024;BME280;42916;54.346;18.562;2023-02-01T09:26:03;98639.05;;;4.13;94.38
57024;BME280;42916;54.346;18.562;2023-02-01T09:28:30;98632.33;;;4.16;93.94
57024;BME280;42916;54.346;18.562;2023-02-01T09:30:58;98637.27;;;4.17;93.93
57024;BME280;42916;54.346;18.562;2023-02-01T09:33:26;98654.05;;;4.18;93.60
57024;BME280;42916;54.346;18.562;2023-02-01T09:35:59;98629.95;;;4.22;93.72
57024;BME280;42916;54.346;18.562;2023-02-01T09:38:27;98639.10;;;4.22;93.46
57024;BME280;42916;54.346;18.562;2023-02-01T09:40:54;98648.48;;;4.24;93.29
57024;BME280;42916;54.346;18.562;2023-02-01T09:46:28;98640.46;;;4.29;93.34
57024;BME280;42916;54.346;18.562;2023-02-01T09:48:58;98645.70;;;4.31;92.01
57024;BME280;42916;54.346;18.562;2023-02-01T09:51:36;98669.09;;;4.33;90.85
57024;BME280;42916;54.346;18.562;2023-02-01T09:56:49;98662.76;;;4.30;88.91
57024;BME280;42916;54.346;18.562;2023-02-01T10:02:18;98672.08;;;4.30;89.71
57024;BME280;42916;54.346;18.562;2023-02-01T10:04:46;98661.45;;;4.35;89.31
57024;BME280;42916;54.346;18.562;2023-02-01T10:07:43;98668.63;;;4.37;89.16
57024;BME280;42916;54.346;18.562;2023-02-01T10:10:43;98656.82;;;4.41;89.57
57024;BME280;42916;54.346;18.562;2023-02-01T10:16:23;98676.56;;;4.54;89.30
57024;BME280;42916;54.346;18.562;2023-02-01T10:19:03;98660.91;;;4.64;89.28
57024;BME280;42916;54.346;18.562;2023-02-01T10:26:42;98693.44;;;4.70;86.52
57024;BME280;42916;54.346;18.562;2023-02-01T10:29:22;98682.40;;;4.62;86.79
57024;BME280;42916;54.346;18.562;2023-02-01T10:31:52;98684.63;;;4.60;87.59
57024;BME280;42916;54.346;18.562;2023-02-01T10:34:30;98679.85;;;4.54;87.59
57024;BME280;42916;54.346;18.562;2023-02-01T10:39:48;98684.57;;;4.50;89.49
57024;BME280;42916;54.346;18.562;2023-02-01T10:42:21;98682.80;;;4.52;90.04
57024;BME280;42916;54.346;18.562;2023-02-01T10:44:49;98682.92;;;4.47;90.47
57024;BME280;42916;54.346;18.562;2023-02-01T10:47:16;98683.96;;;4.43;90.64
57024;BME280;42916;54.346;18.562;2023-02-01T10:53:04;98688.40;;;4.44;91.41
57024;BME280;42916;54.346;18.562;2023-02-01T10:58:26;98692.40;;;4.61;90.88
57024;BME280;42916;54.346;18.562;2023-02-01T11:00:57;98688.39;;;4.66;90.56
57024;BME280;42916;54.346;18.562;2023-02-01T11:03:44;98688.19;;;4.67;90.42
57024;BME280;42916;54.346;18.562;2023-02-01T11:08:46;98695.14;;;4.81;90.65
57024;BME280;42916;54.346;18.562;2023-02-01T11:11:13;98689.95;;;4.89;91.04
57024;BME280;42916;54.346;18.562;2023-02-01T11:13:41;98694.23;;;5.00;90.98
57024;BME280;42916;54.346;18.562;2023-02-01T11:16:12;98690.38;;;4.98;89.86
57024;BME280;42916;54.346;18.562;2023-02-01T11:18:40;98688.58;;;4.94;89.81
57024;BME280;42916;54.346;18.562;2023-02-01T11:21:09;98687.75;;;4.81;89.27
57024;BME280;42916;54.346;18.562;2023-02-01T11:23:43;98697.52;;;4.69;90.48
57024;BME280;42916;54.346;18.562;2023-02-01T11:26:22;98694.85;;;4.58;91.80
57024;BME280;42916;54.346;18.562;2023-02-01T11:29:08;98711.89;;;4.35;92.21
57024;BME280;42916;54.346;18.562;2023-02-01T11:31:38;98707.75;;;4.01;92.88
57024;BME280;42916;54.346;18.562;2023-02-01T11:34:12;98695.65;;;3.76;93.79
57024;BME280;42916;54.346;18.562;2023-02-01T11:36:40;98700.63;;;3.53;95.74
57024;BME280;42916;54.346;18.562;2023-02-01T11:39:33;98693.30;;;3.43;96.33
57024;BME280;42916;54.346;18.562;2023-02-01T11:42:05;98694.88;;;3.45;97.82
57024;BME280;42916;54.346;18.562;2023-02-01T11:47:30;98690.52;;;3.50;99.29
57024;BME280;42916;54.346;18.562;2023-02-01T11:50:05;98691.02;;;3.41;99.60
57024;BME280;42916;54.346;18.562;2023-02-01T11:52:43;98691.78;;;3.34;99.42
57024;BME280;42916;54.346;18.562;2023-02-01T12:01:07;98685.06;;;3.04;100.00
57024;BME280;42916;54.346;18.562;2023-02-01T12:04:03;98680.93;;;3.10;100.00
57024;BME280;42916;54.346;18.562;2023-02-01T12:22:38;98698.38;;;3.50;100.00
57024;BME280;42916;54.346;18.562;2023-02-01T12:25:19;98706.23;;;3.38;100.00
57024;BME280;42916;54.346;18.562;2023-02-01T12:36:18;98721.23;;;2.69;100.00
57024;BME280;42916;54.346;18.562;2023-02-01T12:41:50;98732.92;;;2.41;100.00
57024;BME280;42916;54.346;18.562;2023-02-01T12:47:13;98739.20;;;2.19;100.00
57024;BME280;42916;54.346;18.562;2023-02-01T12:50:17;98723.77;;;2.03;100.00
57024;BME280;42916;54.346;18.562;2023-02-01T12:52:49;98729.65;;;1.84;100.00
57024;BME280;42916;54.346;18.562;2023-02-01T12:57:58;98704.62;;;1.60;100.00
57024;BME280;42916;54.346;18.562;2023-02-01T13:00:34;98698.22;;;1.59;100.00
57024;BME280;42916;54.346;18.562;2023-02-01T13:05:50;98705.09;;;1.64;100.00
57024;BME280;42916;54.346;18.562;2023-02-01T13:08:25;98701.33;;;1.66;100.00
57024;BME280;42916;54.346;18.562;2023-02-01T13:11:04;98700.09;;;1.68;100.00
57024;BME280;42916;54.346;18.562;2023-02-01T13:13:44;98702.92;;;1.74;100.00
57024;BME280;42916;54.346;18.562;2023-02-01T13:16:21;98700.45;;;1.82;100.00
57024;BME280;42916;54.346;18.562;2023-02-01T13:18:57;98694.10;;;1.90;100.00
57024;BME280;42916;54.346;18.562;2023-02-01T13:21:31;98699.49;;;2.10;100.00
57024;BME280;42916;54.346;18.562;2023-02-01T13:23:58;98694.42;;;2.28;100.00
57024;BME280;42916;54.346;18.562;2023-02-01T13:26:25;98700.05;;;2.33;100.00
57024;BME280;42916;54.346;18.562;2023-02-01T13:29:12;98698.61;;;2.34;100.00
57024;BME280;42916;54.346;18.562;2023-02-01T13:42:59;98701.38;;;2.52;100.00
57024;BME280;42916;54.346;18.562;2023-02-01T13:45:31;98698.80;;;2.77;100.00
57024;BME280;42916;54.346;18.562;2023-02-01T13:48:02;98716.09;;;2.87;100.00
57024;BME280;42916;54.346;18.562;2023-02-01T13:50:33;98711.72;;;2.94;100.00
57024;BME280;42916;54.346;18.562;2023-02-01T13:53:30;98708.62;;;2.99;100.00
57024;BME280;42916;54.346;18.562;2023-02-01T13:58:41;98713.11;;;3.05;100.00
57024;BME280;42916;54.346;18.562;2023-02-01T14:03:55;98719.48;;;3.06;100.00
57024;BME280;42916;54.346;18.562;2023-02-01T14:16:40;98707.42;;;3.17;100.00
57024;BME280;42916;54.346;18.562;2023-02-01T14:19:18;98709.25;;;3.17;100.00
57024;BME280;42916;54.346;18.562;2023-02-01T14:21:56;98722.02;;;3.20;100.00
57024;BME280;42916;54.346;18.562;2023-02-01T14:24:34;98730.15;;;3.31;100.00
57024;BME280;42916;54.346;18.562;2023-02-01T14:29:43;98733.17;;;3.43;100.00
57024;BME280;42916;54.346;18.562;2023-02-01T14:32:22;98739.05;;;3.43;100.00
57024;BME280;42916;54.346;18.562;2023-02-01T14:34:53;98744.63;;;3.38;100.00
57024;BME280;42916;54.346;18.562;2023-02-01T14:37:26;98742.96;;;3.34;100.00
57024;BME280;42916;54.346;18.562;2023-02-01T14:40:00;98739.55;;;3.28;100.00
57024;BME280;42916;54.346;18.562;2023-02-01T14:55:55;98753.38;;;2.91;100.00
57024;BME280;42916;54.346;18.562;2023-02-01T15:01:05;98756.23;;;2.81;100.00
57024;BME280;42916;54.346;18.562;2023-02-01T15:06:30;98772.66;;;2.68;100.00
57024;BME280;42916;54.346;18.562;2023-02-01T15:09:02;98767.30;;;2.61;100.00
57024;BME280;42916;54.346;18.562;2023-02-01T15:11:30;98777.77;;;2.55;100.00
57024;BME280;42916;54.346;18.562;2023-02-01T15:13:57;98773.77;;;2.51;100.00
57024;BME280;42916;54.346;18.562;2023-02-01T15:16:26;98779.20;;;2.48;100.00
57024;BME280;42916;54.346;18.562;2023-02-01T15:19:10;98783.58;;;2.43;100.00
57024;BME280;42916;54.346;18.562;2023-02-01T15:21:49;98778.08;;;2.36;100.00
57024;BME280;42916;54.346;18.562;2023-02-01T15:24:22;98778.88;;;2.30;100.00
57024;BME280;42916;54.346;18.562;2023-02-01T15:26:51;98792.79;;;2.24;100.00
57024;BME280;42916;54.346;18.562;2023-02-01T15:29:20;98798.01;;;2.19;100.00
57024;BME280;42916;54.346;18.562;2023-02-01T15:31:52;98798.77;;;2.11;100.00
57024;BME280;42916;54.346;18.562;2023-02-01T15:34:20;98791.48;;;2.01;100.00
57024;BME280;42916;54.346;18.562;2023-02-01T15:36:48;98791.30;;;1.94;100.00
57024;BME280;42916;54.346;18.562;2023-02-01T15:39:21;98799.14;;;1.89;100.00
57024;BME280;42916;54.346;18.562;2023-02-01T15:41:59;98804.39;;;1.83;100.00
57024;BME280;42916;54.346;18.562;2023-02-01T15:44:34;98807.19;;;1.78;100.00
57024;BME280;42916;54.346;18.562;2023-02-01T15:47:36;98804.79;;;1.74;100.00
57024;BME280;42916;54.346;18.562;2023-02-01T15:50:03;98805.32;;;1.68;100.00
57024;BME280;42916;54.346;18.562;2023-02-01T15:52:36;98804.63;;;1.64;100.00
57024;BME280;42916;54.346;18.562;2023-02-01T15:55:07;98805.20;;;1.62;100.00